createdAt,value
2022-08-17T00:00:05.467Z,100610.61
2022-08-17T00:02:32.612Z,100612.88
2022-08-17T00:05:05.706Z,100608.85
2022-08-17T00:07:32.393Z,100615.21
2022-08-17T00:09:59.080Z,100612.91
2022-08-17T00:12:40.834Z,100609.83
2022-08-17T00:15:13.636Z,100607.90
2022-08-17T00:17:42.482Z,100608.77
2022-08-17T00:20:12.226Z,100606.30
2022-08-17T00:22:39.156Z,100614.07
2022-08-17T00:25:13.015Z,100619.34
2022-08-17T00:27:40.492Z,100615.80
2022-08-17T00:30:11.881Z,100622.73
2022-08-17T00:33:11.941Z,100623.59
2022-08-17T00:35:34.420Z,100623.85
2022-08-17T00:38:01.158Z,100627.30
2022-08-17T00:40:39.885Z,100627.90
2022-08-17T00:43:33.547Z,100627.98
2022-08-17T00:46:15.883Z,100622.81
2022-08-17T00:48:44.153Z,100624.11
2022-08-17T00:51:26.451Z,100625.05
2022-08-17T00:54:22.178Z,100624.56
2022-08-17T00:57:15.099Z,100626.22
2022-08-17T00:59:51.126Z,100624.52
2022-08-17T01:02:42.253Z,100622.35
2022-08-17T01:05:23.856Z,100622.02
2022-08-17T01:07:53.814Z,100623.14
2022-08-17T01:10:58.556Z,100624.96
2022-08-17T01:13:19.108Z,100627.02
2022-08-17T01:16:31.968Z,100628.34
2022-08-17T01:19:03.318Z,100625.41
2022-08-17T01:21:56.657Z,100625.52
2022-08-17T01:24:24.303Z,100627.23
2022-08-17T01:26:51.629Z,100629.92
2022-08-17T01:29:23.007Z,100629.73
2022-08-17T01:31:56.701Z,100631.06
2022-08-17T01:34:25.008Z,100631.79
2022-08-17T01:37:05.129Z,100633.77
2022-08-17T01:39:54.139Z,100633.30
2022-08-17T01:42:31.942Z,100636.20
2022-08-17T01:45:06.890Z,100638.13
2022-08-17T01:47:36.081Z,100635.08
2022-08-17T01:50:11.398Z,100636.30
2022-08-17T01:52:39.499Z,100638.86
2022-08-17T01:55:08.192Z,100642.28
2022-08-17T01:57:35.540Z,100641.27
2022-08-17T02:00:10.277Z,100642.48
2022-08-17T02:02:37.314Z,100640.27
2022-08-17T02:05:07.238Z,100636.89
2022-08-17T02:07:59.489Z,100639.01
2022-08-17T02:10:23.917Z,100641.61
2022-08-17T02:13:04.829Z,100644.35
2022-08-17T02:15:32.368Z,100645.21
2022-08-17T02:17:59.247Z,100646.20
2022-08-17T02:20:42.045Z,100644.42
2022-08-17T02:23:13.061Z,100641.98
2022-08-17T02:25:44.206Z,100642.85
2022-08-17T02:28:11.438Z,100641.45
2022-08-17T02:31:00.194Z,100636.77
2022-08-17T02:33:25.313Z,100636.20
2022-08-17T02:36:12.720Z,100632.00
2022-08-17T02:38:42.473Z,100633.08
2022-08-17T02:41:09.785Z,100636.17
2022-08-17T02:43:36.738Z,100633.16
2022-08-17T02:46:03.437Z,100631.71
2022-08-17T02:48:32.035Z,100632.35
2022-08-17T02:51:00.756Z,100629.76
2022-08-17T02:53:33.674Z,100632.09
2022-08-17T02:56:04.201Z,100636.73
2022-08-17T02:58:35.209Z,100637.61
2022-08-17T03:01:06.262Z,100634.83
2022-08-17T03:03:33.420Z,100633.53
2022-08-17T03:06:01.178Z,100633.20
2022-08-17T03:08:28.434Z,100631.45
2022-08-17T03:10:55.676Z,100630.23
2022-08-17T03:13:23.198Z,100627.82
2022-08-17T03:15:50.664Z,100624.55
2022-08-17T03:18:24.486Z,100629.05
2022-08-17T03:20:56.405Z,100630.48
2022-08-17T03:23:25.523Z,100635.06
2022-08-17T03:25:53.959Z,100633.64
2022-08-17T03:28:23.118Z,100631.28
2022-08-17T03:30:51.461Z,100629.34
2022-08-17T03:33:19.548Z,100626.05
2022-08-17T03:35:47.291Z,100621.30
2022-08-17T03:38:17.380Z,100621.15
2022-08-17T03:40:57.442Z,100621.04
2022-08-17T03:43:26.226Z,100620.00
2022-08-17T03:46:28.636Z,100617.61
2022-08-17T03:49:17.510Z,100616.56
2022-08-17T03:52:03.175Z,100617.52
2022-08-17T03:54:48.869Z,100614.50
2022-08-17T03:57:16.655Z,100618.66
2022-08-17T03:59:45.032Z,100618.80
2022-08-17T04:02:34.089Z,100622.77
2022-08-17T04:05:01.755Z,100622.20
2022-08-17T04:07:31.298Z,100622.48
2022-08-17T04:09:59.560Z,100622.86
2022-08-17T04:12:31.268Z,100622.98
2022-08-17T04:14:59.121Z,100628.47
2022-08-17T04:17:29.449Z,100627.30
2022-08-17T04:19:57.620Z,100629.43
2022-08-17T04:22:32.790Z,100632.92
2022-08-17T04:25:21.234Z,100630.51
2022-08-17T04:27:48.805Z,100632.70
2022-08-17T04:30:16.263Z,100634.78
2022-08-17T04:33:05.011Z,100633.63
2022-08-17T04:35:40.078Z,100636.48
2022-08-17T04:38:10.462Z,100636.74
2022-08-17T04:40:56.680Z,100636.86
2022-08-17T04:43:26.605Z,100646.58
2022-08-17T04:46:06.041Z,100649.44
2022-08-17T04:48:37.827Z,100655.91
2022-08-17T04:51:10.009Z,100654.70
2022-08-17T04:53:39.122Z,100649.16
2022-08-17T04:56:06.854Z,100649.18
2022-08-17T04:58:33.926Z,100652.13
2022-08-17T05:01:01.571Z,100650.84
2022-08-17T05:03:29.243Z,100656.63
2022-08-17T05:05:55.949Z,100659.37
2022-08-17T05:08:22.754Z,100657.80
2022-08-17T05:10:50.218Z,100660.17
2022-08-17T05:13:21.604Z,100657.59
2022-08-17T05:15:53.093Z,100665.14
2022-08-17T05:18:19.816Z,100666.40
2022-08-17T05:20:46.696Z,100668.33
2022-08-17T05:23:18.916Z,100668.91
2022-08-17T05:25:54.595Z,100668.38
2022-08-17T05:28:26.544Z,100669.04
2022-08-17T05:30:59.329Z,100672.34
2022-08-17T05:33:31.757Z,100673.33
2022-08-17T05:36:00.203Z,100675.19
2022-08-17T05:38:29.623Z,100678.19
2022-08-17T05:41:00.373Z,100680.91
2022-08-17T05:43:31.970Z,100671.25
2022-08-17T05:46:27.373Z,100676.90
2022-08-17T05:49:03.157Z,100684.08
2022-08-17T05:52:04.071Z,100689.63
2022-08-17T05:55:10.238Z,100686.30
2022-08-17T05:57:56.292Z,100689.05
2022-08-17T06:01:04.130Z,100689.26
2022-08-17T06:04:21.682Z,100686.41
2022-08-17T06:07:10.993Z,100689.59
2022-08-17T06:10:10.114Z,100691.23
2022-08-17T06:13:08.408Z,100692.23
2022-08-17T06:16:33.776Z,100696.27
2022-08-17T06:19:31.671Z,100697.87
2022-08-17T06:22:00.317Z,100699.60
2022-08-17T06:24:35.678Z,100696.19
2022-08-17T06:27:13.009Z,100694.84
2022-08-17T06:30:13.217Z,100696.88
2022-08-17T06:32:45.101Z,100695.42
2022-08-17T06:35:18.392Z,100696.61
2022-08-17T06:38:37.166Z,100695.56
2022-08-17T06:41:38.115Z,100696.02
2022-08-17T06:44:43.198Z,100690.41
2022-08-17T06:48:06.791Z,100692.83
2022-08-17T06:50:46.531Z,100691.61
2022-08-17T06:53:26.722Z,100689.93
2022-08-17T06:56:22.064Z,100696.33
2022-08-17T06:58:49.996Z,100693.03
2022-08-17T07:01:31.781Z,100692.65
2022-08-17T07:04:15.438Z,100688.83
2022-08-17T07:07:24.656Z,100691.92
2022-08-17T07:09:56.517Z,100696.49
2022-08-17T07:12:34.221Z,100692.18
2022-08-17T07:15:22.865Z,100691.80
2022-08-17T07:17:49.854Z,100692.50
2022-08-17T07:20:22.718Z,100694.55
2022-08-17T07:23:03.177Z,100691.95
2022-08-17T07:25:30.728Z,100687.07
2022-08-17T07:28:06.107Z,100687.20
2022-08-17T07:30:49.217Z,100683.16
2022-08-17T07:33:26.062Z,100684.52
2022-08-17T07:35:53.632Z,100681.58
2022-08-17T07:38:28.352Z,100681.52
2022-08-17T07:41:01.181Z,100680.79
2022-08-17T07:43:45.028Z,100682.87
2022-08-17T07:46:30.344Z,100683.51
2022-08-17T07:49:09.117Z,100687.49
2022-08-17T07:51:57.264Z,100690.94
2022-08-17T07:54:37.629Z,100682.52
2022-08-17T07:57:13.225Z,100684.56
2022-08-17T07:59:44.175Z,100691.56
2022-08-17T08:02:17.175Z,100690.84
2022-08-17T08:05:01.899Z,100686.10
2022-08-17T08:07:50.638Z,100686.42
2022-08-17T08:10:38.387Z,100687.91
2022-08-17T08:13:14.483Z,100685.22
2022-08-17T08:15:54.796Z,100687.72
2022-08-17T08:18:54.075Z,100692.36
2022-08-17T08:21:42.206Z,100691.30
2022-08-17T08:24:40.689Z,100696.12
2022-08-17T08:27:50.325Z,100697.48
2022-08-17T08:30:22.084Z,100698.65
2022-08-17T08:33:29.487Z,100697.45
2022-08-17T08:36:58.120Z,100697.46
2022-08-17T08:39:30.802Z,100690.18
2022-08-17T08:42:49.850Z,100685.61
2022-08-17T08:45:43.981Z,100682.05
2022-08-17T08:49:12.180Z,100683.89
2022-08-17T08:51:56.216Z,100684.50
2022-08-17T08:54:53.757Z,100679.54
2022-08-17T08:57:34.374Z,100681.68
2022-08-17T09:00:20.999Z,100678.70
2022-08-17T09:03:51.949Z,100675.30
2022-08-17T09:06:39.072Z,100681.50
2022-08-17T09:09:19.078Z,100683.44
2022-08-17T09:12:06.618Z,100682.14
2022-08-17T09:14:47.001Z,100678.23
2022-08-17T09:17:25.500Z,100674.55
2022-08-17T09:20:05.762Z,100673.66
2022-08-17T09:22:52.777Z,100673.25
2022-08-17T09:25:28.398Z,100671.89
2022-08-17T09:28:20.460Z,100672.70
2022-08-17T09:30:55.286Z,100672.96
2022-08-17T09:33:27.621Z,100674.02
2022-08-17T09:36:08.467Z,100674.15
2022-08-17T09:38:43.587Z,100669.38
2022-08-17T09:41:50.433Z,100673.06
2022-08-17T09:44:46.045Z,100674.09
2022-08-17T09:47:24.431Z,100679.87
2022-08-17T09:50:11.524Z,100687.00
2022-08-17T09:52:38.257Z,100684.98
2022-08-17T09:55:06.190Z,100677.46
2022-08-17T09:58:12.014Z,100678.23
2022-08-17T10:00:53.518Z,100674.40
2022-08-17T10:03:51.786Z,100667.77
2022-08-17T10:06:52.286Z,100668.45
2022-08-17T10:09:53.138Z,100657.20
2022-08-17T10:12:38.735Z,100656.36
2022-08-17T10:15:42.722Z,100653.77
2022-08-17T10:18:31.867Z,100659.60
2022-08-17T10:21:38.417Z,100657.08
2022-08-17T10:25:23.403Z,100651.45
2022-08-17T10:28:05.435Z,100660.66
2022-08-17T10:30:41.620Z,100663.33
2022-08-17T10:33:24.835Z,100663.52
2022-08-17T10:36:14.941Z,100661.66
2022-08-17T10:38:59.773Z,100655.95
2022-08-17T10:41:41.524Z,100651.27
2022-08-17T10:44:56.285Z,100652.41
2022-08-17T10:47:27.009Z,100655.33
2022-08-17T10:49:56.014Z,100659.97
2022-08-17T10:52:24.064Z,100661.33
2022-08-17T10:54:51.807Z,100658.90
2022-08-17T10:57:33.855Z,100657.77
2022-08-17T11:00:15.638Z,100658.66
2022-08-17T11:02:51.165Z,100658.36
2022-08-17T11:05:54.033Z,100653.04
2022-08-17T11:08:50.701Z,100650.75
2022-08-17T11:12:10.699Z,100648.40
2022-08-17T11:14:53.671Z,100650.02
2022-08-17T11:18:15.419Z,100643.63
2022-08-17T11:21:39.156Z,100644.04
2022-08-17T11:24:30.581Z,100640.19
2022-08-17T11:27:36.023Z,100636.27
2022-08-17T11:30:34.746Z,100629.89
2022-08-17T11:33:38.243Z,100629.10
2022-08-17T11:36:23.520Z,100629.14
2022-08-17T11:39:33.416Z,100631.37
2022-08-17T11:42:44.355Z,100628.94
2022-08-17T11:45:46.425Z,100624.02
2022-08-17T11:49:06.513Z,100624.76
2022-08-17T11:52:13.858Z,100620.79
2022-08-17T11:54:48.024Z,100625.92
2022-08-17T11:57:26.998Z,100623.52
2022-08-17T12:00:11.599Z,100618.71
2022-08-17T12:02:48.753Z,100620.05
2022-08-17T12:05:19.431Z,100618.80
2022-08-17T12:07:55.970Z,100615.18
2022-08-17T12:10:32.114Z,100612.61
2022-08-17T12:13:11.497Z,100613.11
2022-08-17T12:15:48.795Z,100617.50
2022-08-17T12:18:29.217Z,100616.84
2022-08-17T12:21:24.370Z,100611.91
2022-08-17T12:24:26.014Z,100618.36
2022-08-17T12:27:04.353Z,100616.54
2022-08-17T12:29:35.403Z,100622.80
2022-08-17T12:32:07.361Z,100623.02
2022-08-17T12:34:42.309Z,100625.72
2022-08-17T12:37:18.510Z,100624.65
2022-08-17T12:39:58.645Z,100624.50
2022-08-17T12:42:33.091Z,100620.27
2022-08-17T12:45:00.113Z,100620.69
2022-08-17T12:47:30.053Z,100611.20
2022-08-17T12:50:28.667Z,100607.39
2022-08-17T12:53:01.657Z,100608.98
2022-08-17T12:55:36.743Z,100605.77
2022-08-17T12:58:05.006Z,100596.80
2022-08-17T13:00:38.210Z,100586.73
2022-08-17T13:03:19.301Z,100578.60
2022-08-17T13:05:52.112Z,100575.82
2022-08-17T13:08:28.163Z,100576.88
2022-08-17T13:10:58.112Z,100577.57
2022-08-17T13:13:41.360Z,100576.96
2022-08-17T13:16:17.687Z,100582.39
2022-08-17T13:19:12.766Z,100586.19
2022-08-17T13:21:48.102Z,100581.79
2022-08-17T13:24:37.922Z,100575.83
2022-08-17T13:27:10.106Z,100578.16
2022-08-17T13:29:51.532Z,100579.34
2022-08-17T13:32:43.985Z,100581.05
2022-08-17T13:35:39.954Z,100580.67
2022-08-17T13:38:12.609Z,100579.98
2022-08-17T13:40:53.143Z,100580.26
2022-08-17T13:43:42.783Z,100581.81
2022-08-17T13:46:26.574Z,100581.65
2022-08-17T13:49:09.759Z,100584.11
2022-08-17T13:51:46.170Z,100580.23
2022-08-17T13:54:35.314Z,100579.84
2022-08-17T13:57:23.255Z,100577.09
2022-08-17T14:00:17.481Z,100582.32
2022-08-17T14:02:44.507Z,100583.20
2022-08-17T14:05:11.331Z,100577.85
2022-08-17T14:07:40.727Z,100581.77
2022-08-17T14:10:18.083Z,100573.73
2022-08-17T14:12:46.070Z,100568.09
2022-08-17T14:15:17.836Z,100564.39
2022-08-17T14:17:44.578Z,100563.98
2022-08-17T14:20:13.423Z,100568.94
2022-08-17T14:22:45.643Z,100569.52
2022-08-17T14:25:18.640Z,100568.66
2022-08-17T14:27:53.028Z,100568.50
2022-08-17T14:30:25.120Z,100574.14
2022-08-17T14:32:53.555Z,100567.71
2022-08-17T14:35:24.029Z,100565.17
2022-08-17T14:37:52.847Z,100564.02
2022-08-17T14:40:24.928Z,100561.73
2022-08-17T14:42:55.139Z,100558.83
2022-08-17T14:45:30.389Z,100570.15
2022-08-17T14:48:07.584Z,100566.96
2022-08-17T14:50:42.297Z,100559.17
2022-08-17T14:53:13.566Z,100560.73
2022-08-17T14:55:40.799Z,100566.15
2022-08-17T14:58:09.503Z,100563.50
2022-08-17T15:00:37.856Z,100560.30
2022-08-17T15:03:05.737Z,100562.75
2022-08-17T15:05:37.153Z,100555.67
2022-08-17T15:08:05.726Z,100552.45
2022-08-17T15:10:34.096Z,100557.34
2022-08-17T15:13:01.155Z,100564.55
2022-08-17T15:15:29.588Z,100564.95
2022-08-17T15:17:57.231Z,100556.98
2022-08-17T15:20:29.057Z,100554.49
2022-08-17T15:22:58.810Z,100550.74
2022-08-17T15:25:29.295Z,100548.15
2022-08-17T15:27:56.698Z,100555.89
2022-08-17T15:30:26.026Z,100558.79
2022-08-17T15:32:55.198Z,100555.38
2022-08-17T15:35:29.002Z,100550.26
2022-08-17T15:38:09.898Z,100549.45
2022-08-17T15:40:50.399Z,100547.65
2022-08-17T15:43:32.645Z,100541.48
2022-08-17T15:46:14.676Z,100539.55
2022-08-17T15:48:44.791Z,100539.31
2022-08-17T15:51:20.534Z,100540.45
2022-08-17T15:53:55.659Z,100536.82
2022-08-17T15:56:25.238Z,100537.94
2022-08-17T15:58:53.019Z,100532.38
2022-08-17T16:02:14.243Z,100531.15
2022-08-17T16:04:30.213Z,100538.85
2022-08-17T16:06:59.329Z,100534.86
2022-08-17T16:09:26.409Z,100529.27
2022-08-17T16:11:55.346Z,100528.20
2022-08-17T16:14:24.298Z,100528.91
2022-08-17T16:16:51.320Z,100525.96
2022-08-17T16:19:17.999Z,100524.67
2022-08-17T16:21:44.727Z,100525.48
2022-08-17T16:24:13.251Z,100528.75
2022-08-17T16:26:42.772Z,100529.34
2022-08-17T16:29:09.592Z,100527.44
2022-08-17T16:31:37.842Z,100529.18
2022-08-17T16:34:17.284Z,100518.50
2022-08-17T16:36:55.199Z,100520.32
2022-08-17T16:39:26.825Z,100524.42
2022-08-17T16:41:53.768Z,100521.21
2022-08-17T16:44:21.971Z,100524.60
2022-08-17T16:46:50.347Z,100521.73
2022-08-17T16:49:35.969Z,100522.99
2022-08-17T16:52:10.442Z,100524.03
2022-08-17T16:54:43.346Z,100525.09
2022-08-17T16:57:13.111Z,100529.02
2022-08-17T16:59:44.958Z,100526.88
2022-08-17T17:02:16.047Z,100526.46
2022-08-17T17:05:02.964Z,100527.23
2022-08-17T17:08:12.870Z,100525.64
2022-08-17T17:10:55.730Z,100525.70
2022-08-17T17:13:43.851Z,100517.94
2022-08-17T17:16:21.517Z,100515.91
2022-08-17T17:19:09.031Z,100518.98
2022-08-17T17:21:58.694Z,100524.83
2022-08-17T17:24:39.663Z,100528.64
2022-08-17T17:27:42.556Z,100530.09
2022-08-17T17:30:29.929Z,100522.09
2022-08-17T17:33:09.139Z,100525.45
2022-08-17T17:35:53.584Z,100524.17
2022-08-17T17:38:49.674Z,100525.47
2022-08-17T17:41:28.976Z,100524.42
2022-08-17T17:44:07.860Z,100523.47
2022-08-17T17:46:43.299Z,100529.53
2022-08-17T17:49:14.290Z,100534.50
2022-08-17T17:52:09.235Z,100533.78
2022-08-17T17:54:57.427Z,100529.31
2022-08-17T17:57:49.392Z,100528.46
2022-08-17T18:00:24.284Z,100531.94
2022-08-17T18:03:20.627Z,100536.17
2022-08-17T18:06:24.771Z,100537.10
2022-08-17T18:09:11.349Z,100541.58
2022-08-17T18:12:16.660Z,100541.62
2022-08-17T18:15:03.507Z,100544.94
2022-08-17T18:17:31.203Z,100542.73
2022-08-17T18:19:58.020Z,100543.68
2022-08-17T18:22:27.728Z,100545.48
2022-08-17T18:24:57.235Z,100548.52
2022-08-17T18:27:38.104Z,100550.70
2022-08-17T18:30:29.871Z,100546.04
2022-08-17T18:33:26.288Z,100549.84
2022-08-17T18:35:58.828Z,100550.33
2022-08-17T18:38:41.398Z,100561.13
2022-08-17T18:41:30.265Z,100565.14
2022-08-17T18:44:06.093Z,100566.55
2022-08-17T18:46:37.766Z,100566.60
2022-08-17T18:49:29.304Z,100563.52
2022-08-17T18:52:32.494Z,100565.23
2022-08-17T18:55:20.112Z,100565.34
2022-08-17T18:57:52.319Z,100563.50
2022-08-17T19:00:40.500Z,100571.54
2022-08-17T19:03:16.284Z,100570.52
2022-08-17T19:06:15.403Z,100570.76
2022-08-17T19:08:42.449Z,100568.64
2022-08-17T19:11:34.021Z,100570.00
2022-08-17T19:14:09.248Z,100570.19
2022-08-17T19:17:02.296Z,100568.56
2022-08-17T19:20:12.907Z,100562.77
2022-08-17T19:23:08.002Z,100560.11
2022-08-17T19:25:45.248Z,100559.16
2022-08-17T19:28:25.716Z,100558.72
2022-08-17T19:31:04.089Z,100560.52
2022-08-17T19:33:31.583Z,100563.83
2022-08-17T19:36:31.123Z,100569.95
2022-08-17T19:39:26.794Z,100565.89
2022-08-17T19:42:50.647Z,100560.19
2022-08-17T19:45:39.508Z,100562.70
2022-08-17T19:48:56.408Z,100565.79
2022-08-17T19:51:34.090Z,100561.84
2022-08-17T19:54:20.595Z,100563.95
2022-08-17T19:57:06.787Z,100566.75
2022-08-17T20:00:01.911Z,100565.06
2022-08-17T20:03:05.877Z,100565.19
2022-08-17T20:06:10.969Z,100562.66
2022-08-17T20:08:48.735Z,100560.86
2022-08-17T20:11:27.290Z,100553.80
2022-08-17T20:14:33.801Z,100556.39
2022-08-17T20:17:03.065Z,100554.72
2022-08-17T20:19:55.525Z,100548.61
2022-08-17T20:22:52.035Z,100550.11
2022-08-17T20:25:43.532Z,100558.66
2022-08-17T20:28:25.823Z,100558.19
2022-08-17T20:30:52.905Z,100555.84
2022-08-17T20:33:35.219Z,100555.27
2022-08-17T20:36:22.762Z,100552.32
2022-08-17T20:38:58.961Z,100552.84
2022-08-17T20:41:30.461Z,100552.17
2022-08-17T20:43:57.106Z,100551.95
2022-08-17T20:46:36.429Z,100550.31
2022-08-17T20:52:01.023Z,100558.59
2022-08-17T20:54:49.570Z,100559.53
2022-08-17T20:57:31.846Z,100556.63
2022-08-17T21:00:18.150Z,100561.08
2022-08-17T21:02:52.047Z,100557.10
2022-08-17T21:05:34.254Z,100558.73
2022-08-17T21:08:16.883Z,100560.17
2022-08-17T21:10:47.107Z,100561.82
2022-08-17T21:13:15.493Z,100557.61
2022-08-17T21:15:59.055Z,100560.99
2022-08-17T21:18:51.740Z,100562.85
2022-08-17T21:21:41.695Z,100564.08
2022-08-17T21:24:31.576Z,100562.55
2022-08-17T21:27:18.129Z,100565.52
2022-08-17T21:30:24.588Z,100570.25
2022-08-17T21:33:18.477Z,100574.95
2022-08-17T21:36:00.508Z,100572.86
2022-08-17T21:38:41.681Z,100570.15
2022-08-17T21:41:27.246Z,100570.45
2022-08-17T21:44:06.214Z,100571.98
2022-08-17T21:46:39.645Z,100572.47
2022-08-17T21:49:13.843Z,100571.70
2022-08-17T21:51:51.232Z,100571.27
2022-08-17T21:54:34.660Z,100573.90
2022-08-17T21:57:07.981Z,100573.13
2022-08-17T21:59:39.985Z,100574.94
2022-08-17T22:02:18.839Z,100577.58
2022-08-17T22:05:16.648Z,100578.36
2022-08-17T22:07:48.563Z,100579.77
2022-08-17T22:10:38.931Z,100582.14
2022-08-17T22:13:17.616Z,100578.88
2022-08-17T22:15:50.258Z,100582.39
2022-08-17T22:18:28.875Z,100583.36
2022-08-17T22:21:01.743Z,100584.87
2022-08-17T22:23:55.332Z,100585.48
2022-08-17T22:26:27.704Z,100586.19
2022-08-17T22:28:58.942Z,100591.73
2022-08-17T22:31:29.687Z,100591.19
2022-08-17T22:34:02.272Z,100591.48
2022-08-17T22:36:35.056Z,100592.91
2022-08-17T22:39:10.467Z,100586.84
2022-08-17T22:41:51.062Z,100583.67
2022-08-17T22:44:30.228Z,100582.75
2022-08-17T22:47:13.952Z,100587.55
2022-08-17T22:50:00.166Z,100587.30
2022-08-17T22:52:35.252Z,100591.14
2022-08-17T22:55:38.708Z,100591.83
2022-08-17T22:58:35.209Z,100591.59
2022-08-17T23:01:25.936Z,100587.58
2022-08-17T23:04:01.279Z,100587.02
2022-08-17T23:06:29.744Z,100585.92
2022-08-17T23:08:57.767Z,100583.31
2022-08-17T23:11:36.923Z,100585.41
2022-08-17T23:14:16.691Z,100585.52
2022-08-17T23:16:43.557Z,100584.90
2022-08-17T23:19:18.937Z,100585.15
2022-08-17T23:21:46.493Z,100583.66
2022-08-17T23:24:25.973Z,100583.60
2022-08-17T23:26:57.184Z,100585.33
2022-08-17T23:29:29.179Z,100585.20
2022-08-17T23:31:59.904Z,100577.68
2022-08-17T23:34:28.566Z,100576.83
2022-08-17T23:36:56.042Z,100575.30
2022-08-17T23:39:27.725Z,100575.35
2022-08-17T23:41:58.526Z,100577.89
2022-08-17T23:44:27.027Z,100574.16
2022-08-17T23:46:54.646Z,100572.95
2022-08-17T23:49:21.623Z,100575.41
2022-08-17T23:51:49.456Z,100572.77
2022-08-17T23:54:26.858Z,100570.93
2022-08-17T23:56:53.910Z,100571.82
2022-08-17T23:59:23.326Z,100576.30
